createdAt,value
2022-09-04T00:00:14.626Z,98465.47
2022-09-04T00:02:44.089Z,98469.16
2022-09-04T00:05:25.614Z,98474.25
2022-09-04T00:08:11.752Z,98473.47
2022-09-04T00:10:48.812Z,98476.13
2022-09-04T00:13:19.423Z,98476.34
2022-09-04T00:15:53.974Z,98479.81
2022-09-04T00:18:35.548Z,98485.97
2022-09-04T00:21:08.108Z,98477.16
2022-09-04T00:23:45.028Z,98478.22
2022-09-04T00:26:36.611Z,98480.88
2022-09-04T00:29:07.219Z,98475.81
2022-09-04T00:31:39.118Z,98478.47
2022-09-04T00:34:27.849Z,98478.47
2022-09-04T00:36:55.407Z,98477.69
2022-09-04T00:39:31.276Z,98487.53
2022-09-04T00:42:27.047Z,98489.13
2022-09-04T00:45:14.637Z,98484.88
2022-09-04T00:48:05.231Z,98486.75
2022-09-04T00:50:40.973Z,98489.41
2022-09-04T00:53:18.472Z,98498.69
2022-09-04T00:55:50.718Z,98485.38
2022-09-04T00:58:27.280Z,98497.09
2022-09-04T01:00:54.867Z,98496.03
2022-09-04T01:04:03.659Z,98500.28
2022-09-04T01:06:42.531Z,98497.09
2022-09-04T01:09:22.457Z,98502.66
2022-09-04T01:12:07.741Z,98496.78
2022-09-04T01:14:40.184Z,98497.06
2022-09-04T01:17:14.764Z,98497.06
2022-09-04T01:19:53.218Z,98500.53
2022-09-04T01:22:41.172Z,98499.72
2022-09-04T01:25:33.748Z,98501.59
2022-09-04T01:28:15.331Z,98504.25
2022-09-04T01:30:54.174Z,98501.03
2022-09-04T01:33:44.887Z,98503.69
2022-09-04T01:36:18.740Z,98507.94
2022-09-04T01:38:53.639Z,98503.69
2022-09-04T01:41:27.597Z,98501.28
2022-09-04T01:43:54.271Z,98510.88
2022-09-04T01:46:40.222Z,98495.16
2022-09-04T01:49:27.047Z,98505.53
2022-09-04T01:52:09.201Z,98499.41
2022-09-04T01:54:38.789Z,98503.94
2022-09-04T01:57:34.437Z,98498.63
2022-09-04T02:00:23.133Z,98499.41
2022-09-04T02:03:29.232Z,98503.16
2022-09-04T02:06:13.095Z,98501.53
2022-09-04T02:08:51.491Z,98506.03
2022-09-04T02:11:18.753Z,98502.56
2022-09-04T02:14:08.634Z,98503.66
2022-09-04T02:16:46.560Z,98502.31
2022-09-04T02:19:31.967Z,98498.00
2022-09-04T02:22:29.463Z,98499.06
2022-09-04T02:25:15.195Z,98498.00
2022-09-04T02:27:58.446Z,98497.75
2022-09-04T02:30:24.953Z,98501.75
2022-09-04T02:33:15.167Z,98502.81
2022-09-04T02:35:56.783Z,98503.59
2022-09-04T02:38:45.319Z,98503.59
2022-09-04T02:41:37.223Z,98500.94
2022-09-04T02:44:31.521Z,98501.75
2022-09-04T02:47:13.649Z,98506.28
2022-09-04T02:49:48.424Z,98507.88
2022-09-04T02:52:22.019Z,98510.53
2022-09-04T02:55:12.529Z,98508.13
2022-09-04T02:58:11.359Z,98515.31
2022-09-04T03:00:55.179Z,98511.84
2022-09-04T03:03:27.572Z,98510.78
2022-09-04T03:06:10.350Z,98520.63
2022-09-04T03:08:39.809Z,98513.72
2022-09-04T03:11:29.764Z,98521.13
2022-09-04T03:14:24.576Z,98517.13
2022-09-04T03:17:03.316Z,98518.47
2022-09-04T03:19:36.375Z,98514.22
2022-09-04T03:22:12.779Z,98516.06
2022-09-04T03:24:45.906Z,98515.28
2022-09-04T03:27:13.663Z,98523.25
2022-09-04T03:29:51.318Z,98516.31
2022-09-04T03:32:41.511Z,98519.22
2022-09-04T03:35:26.189Z,98522.47
2022-09-04T03:38:16.909Z,98525.34
2022-09-04T03:41:13.460Z,98535.19
2022-09-04T03:44:12.465Z,98542.66
2022-09-04T03:46:48.061Z,98550.38
2022-09-04T03:49:34.820Z,98547.97
2022-09-04T03:52:21.443Z,98548.78
2022-09-04T03:55:27.907Z,98556.50
2022-09-04T03:58:06.379Z,98549.84
2022-09-04T04:00:45.901Z,98553.53
2022-09-04T04:03:34.755Z,98545.81
2022-09-04T04:06:16.702Z,98547.41
2022-09-04T04:08:58.742Z,98544.75
2022-09-04T04:11:57.679Z,98555.38
2022-09-04T04:14:57.195Z,98553.00
2022-09-04T04:17:27.868Z,98545.75
2022-09-04T04:20:06.599Z,98557.19
2022-09-04T04:22:46.704Z,98558.81
2022-09-04T04:25:21.381Z,98554.53
2022-09-04T04:27:52.934Z,98557.19
2022-09-04T04:30:20.596Z,98556.41
2022-09-04T04:33:12.168Z,98562.53
2022-09-04T04:36:01.325Z,98562.00
2022-09-04T04:38:36.785Z,98557.69
2022-09-04T04:41:31.240Z,98555.88
2022-09-04T04:44:10.767Z,98565.13
2022-09-04T04:46:56.456Z,98561.19
2022-09-04T04:49:50.595Z,98582.22
2022-09-04T04:52:31.892Z,98582.22
2022-09-04T04:55:16.343Z,98581.16
2022-09-04T04:57:46.180Z,98580.63
2022-09-04T05:00:26.797Z,98582.22
2022-09-04T05:03:06.544Z,98579.56
2022-09-04T05:05:53.926Z,98586.47
2022-09-04T05:08:35.563Z,98598.97
2022-09-04T05:11:19.812Z,98585.63
2022-09-04T05:14:04.958Z,98598.19
2022-09-04T05:17:09.123Z,98602.72
2022-09-04T05:19:45.539Z,98616.56
2022-09-04T05:22:24.426Z,98616.06
2022-09-04T05:25:24.168Z,98614.47
2022-09-04T05:28:04.367Z,98623.31
2022-09-04T05:31:09.425Z,98623.03
2022-09-04T05:33:51.708Z,98624.09
2022-09-04T05:36:32.738Z,98626.56
2022-09-04T05:39:21.106Z,98628.72
2022-09-04T05:41:55.744Z,98636.22
2022-09-04T05:44:46.064Z,98634.91
2022-09-04T05:47:30.762Z,98639.72
2022-09-04T05:50:22.300Z,98641.06
2022-09-04T05:53:22.235Z,98646.16
2022-09-04T05:56:10.528Z,98647.50
2022-09-04T05:58:47.910Z,98645.69
2022-09-04T06:01:47.525Z,98653.75
2022-09-04T06:04:22.274Z,98646.59
2022-09-04T06:06:59.227Z,98656.75
2022-09-04T06:09:50.584Z,98654.94
2022-09-04T06:12:20.242Z,98657.09
2022-09-04T06:14:57.353Z,98664.31
2022-09-04T06:17:40.140Z,98660.06
2022-09-04T06:20:40.656Z,98660.59
2022-09-04T06:23:25.334Z,98663.53
2022-09-04T06:26:18.640Z,98671.91
2022-09-04T06:29:14.797Z,98672.81
2022-09-04T06:31:57.352Z,98670.47
2022-09-04T06:34:36.664Z,98674.41
2022-09-04T06:37:38.169Z,98674.78
2022-09-04T06:40:16.643Z,98676.94
2022-09-04T06:42:50.237Z,98678.44
2022-09-04T06:45:30.544Z,98672.50
2022-09-04T06:48:09.132Z,98683.09
2022-09-04T06:50:53.974Z,98680.75
2022-09-04T06:53:31.811Z,98676.91
2022-09-04T06:56:33.151Z,98669.41
2022-09-04T06:59:08.656Z,98681.59
2022-09-04T07:01:53.642Z,98680.59
2022-09-04T07:04:44.899Z,98677.41
2022-09-04T07:07:32.755Z,98682.91
2022-09-04T07:10:05.095Z,98682.44
2022-09-04T07:12:52.802Z,98672.75
2022-09-04T07:15:57.314Z,98689.09
2022-09-04T07:18:51.607Z,98677.75
2022-09-04T07:21:42.950Z,98685.25
2022-09-04T07:24:27.630Z,98689.00
2022-09-04T07:27:07.812Z,98702.03
2022-09-04T07:29:40.074Z,98707.31
2022-09-04T07:32:20.304Z,98699.31
2022-09-04T07:35:10.943Z,98705.97
2022-09-04T07:37:58.455Z,98708.97
2022-09-04T07:40:28.001Z,98719.91
2022-09-04T07:43:09.901Z,98723.94
2022-09-04T07:45:47.341Z,98722.31
2022-09-04T07:48:31.983Z,98725.91
2022-09-04T07:51:04.936Z,98724.59
2022-09-04T07:53:44.758Z,98721.19
2022-09-04T07:56:35.291Z,98731.78
2022-09-04T07:59:26.412Z,98735.38
2022-09-04T08:02:20.707Z,98741.69
2022-09-04T08:05:06.804Z,98743.25
2022-09-04T08:07:33.155Z,98741.75
2022-09-04T08:10:20.287Z,98740.72
2022-09-04T08:13:12.202Z,98746.13
2022-09-04T08:15:43.613Z,98751.38
2022-09-04T08:18:22.103Z,98749.53
2022-09-04T08:21:16.220Z,98754.53
2022-09-04T08:24:16.362Z,98762.78
2022-09-04T08:27:16.815Z,98763.91
2022-09-04T08:30:10.971Z,98755.66
2022-09-04T08:32:56.007Z,98762.88
2022-09-04T08:35:31.638Z,98762.63
2022-09-04T08:38:15.013Z,98763.47
2022-09-04T08:41:18.439Z,98766.44
2022-09-04T08:44:16.625Z,98759.25
2022-09-04T08:46:52.904Z,98761.41
2022-09-04T08:50:04.257Z,98765.19
2022-09-04T08:52:52.703Z,98765.72
2022-09-04T08:55:49.953Z,98773.78
2022-09-04T08:58:27.498Z,98769.25
2022-09-04T09:01:15.787Z,98770.56
2022-09-04T09:04:08.670Z,98771.91
2022-09-04T09:06:48.706Z,98766.34
2022-09-04T09:09:20.500Z,98779.16
2022-09-04T09:12:09.362Z,98778.09
2022-09-04T09:14:59.015Z,98769.84
2022-09-04T09:17:39.097Z,98778.38
2022-09-04T09:20:20.069Z,98775.47
2022-09-04T09:23:12.031Z,98778.69
2022-09-04T09:26:06.212Z,98776.03
2022-09-04T09:29:01.955Z,98775.53
2022-09-04T09:32:03.809Z,98770.72
2022-09-04T09:34:58.920Z,98768.34
2022-09-04T09:37:37.359Z,98779.56
2022-09-04T09:40:29.412Z,98771.31
2022-09-04T09:43:17.619Z,98770.00
2022-09-04T09:45:58.554Z,98774.03
2022-09-04T09:48:53.171Z,98773.28
2022-09-04T09:51:57.304Z,98769.03
2022-09-04T09:54:29.670Z,98769.56
2022-09-04T09:57:16.349Z,98772.22
2022-09-04T10:00:06.766Z,98777.28
2022-09-04T10:03:08.655Z,98763.72
2022-09-04T10:05:39.940Z,98765.31
2022-09-04T10:08:26.222Z,98761.06
2022-09-04T10:11:14.894Z,98752.53
2022-09-04T10:13:47.603Z,98758.44
2022-09-04T10:16:52.512Z,98758.44
2022-09-04T10:19:22.049Z,98762.44
2022-09-04T10:22:13.919Z,98751.56
2022-09-04T10:25:07.739Z,98755.31
2022-09-04T10:28:04.791Z,98755.84
2022-09-04T10:31:13.027Z,98747.00
2022-09-04T10:34:07.503Z,98766.63
2022-09-04T10:37:07.843Z,98765.44
2022-09-04T10:40:27.408Z,98770.59
2022-09-04T10:43:30.497Z,98766.44
2022-09-04T10:46:13.724Z,98768.09
2022-09-04T10:49:30.443Z,98764.03
2022-09-04T10:52:06.432Z,98766.84
2022-09-04T10:54:35.819Z,98763.78
2022-09-04T10:57:09.748Z,98770.78
2022-09-04T10:59:58.941Z,98772.59
2022-09-04T11:02:35.804Z,98778.25
2022-09-04T11:05:18.889Z,98768.06
2022-09-04T11:07:51.248Z,98765.25
2022-09-04T11:10:23.419Z,98766.00
2022-09-04T11:13:17.706Z,98763.09
2022-09-04T11:15:47.936Z,98764.41
2022-09-04T11:18:25.076Z,98760.91
2022-09-04T11:21:31.025Z,98767.31
2022-09-04T11:24:49.635Z,98760.34
2022-09-04T11:27:33.383Z,98760.28
2022-09-04T11:30:25.500Z,98758.44
2022-09-04T11:33:02.936Z,98759.81
2022-09-04T11:36:05.879Z,98769.56
2022-09-04T11:38:49.495Z,98768.25
2022-09-04T11:41:44.042Z,98768.13
2022-09-04T11:44:28.588Z,98759.72
2022-09-04T11:47:06.618Z,98762.16
2022-09-04T11:50:07.664Z,98757.50
2022-09-04T11:52:55.625Z,98753.09
2022-09-04T11:55:52.852Z,98756.19
2022-09-04T11:58:45.571Z,98760.84
2022-09-04T12:01:41.634Z,98756.22
2022-09-04T12:04:32.103Z,98746.81
2022-09-04T12:07:42.714Z,98746.75
2022-09-04T12:10:28.071Z,98750.91
2022-09-04T12:13:18.191Z,98756.81
2022-09-04T12:15:56.688Z,98753.56
2022-09-04T12:18:41.635Z,98757.03
2022-09-04T12:21:40.563Z,98757.44
2022-09-04T12:24:34.667Z,98752.38
2022-09-04T12:27:27.272Z,98748.81
2022-09-04T12:30:23.722Z,98754.41
2022-09-04T12:32:56.162Z,98759.69
2022-09-04T12:35:50.540Z,98754.63
2022-09-04T12:38:37.589Z,98763.69
2022-09-04T12:41:20.484Z,98766.59
2022-09-04T12:43:57.229Z,98766.03
2022-09-04T12:46:37.617Z,98761.19
2022-09-04T12:49:30.894Z,98772.88
2022-09-04T12:52:07.905Z,98767.00
2022-09-04T12:55:01.333Z,98771.22
2022-09-04T12:57:33.811Z,98765.53
2022-09-04T13:00:20.520Z,98766.25
2022-09-04T13:03:05.647Z,98771.22
2022-09-04T13:05:52.860Z,98770.66
2022-09-04T13:08:31.971Z,98776.41
2022-09-04T13:11:32.459Z,98776.41
2022-09-04T13:14:34.423Z,98779.31
2022-09-04T13:17:25.250Z,98771.09
2022-09-04T13:20:05.993Z,98781.56
2022-09-04T13:22:51.451Z,98780.88
2022-09-04T13:25:53.208Z,98787.25
2022-09-04T13:28:35.565Z,98782.66
2022-09-04T13:31:05.468Z,98781.72
2022-09-04T13:34:20.989Z,98778.19
2022-09-04T13:37:06.278Z,98786.59
2022-09-04T13:39:56.101Z,98783.00
2022-09-04T13:42:44.055Z,98784.03
2022-09-04T13:45:21.473Z,98777.66
2022-09-04T13:47:56.939Z,98777.28
2022-09-04T13:50:55.644Z,98780.72
2022-09-04T13:53:51.299Z,98775.16
2022-09-04T13:56:19.776Z,98784.41
2022-09-04T13:58:52.223Z,98790.56
2022-09-04T14:01:22.422Z,98786.06
2022-09-04T14:03:51.798Z,98781.09
2022-09-04T14:06:19.873Z,98787.94
2022-09-04T14:08:55.599Z,98793.25
2022-09-04T14:11:47.436Z,98786.69
2022-09-04T14:14:48.625Z,98791.22
2022-09-04T14:17:17.275Z,98786.25
2022-09-04T14:19:52.970Z,98785.22
2022-09-04T14:22:28.763Z,98782.06
2022-09-04T14:25:18.343Z,98786.94
2022-09-04T14:28:23.961Z,98781.94
2022-09-04T14:31:00.987Z,98782.94
2022-09-04T14:33:46.285Z,98782.69
2022-09-04T14:36:16.063Z,98787.22
2022-09-04T14:39:00.770Z,98788.03
2022-09-04T14:41:41.806Z,98786.41
2022-09-04T14:44:12.695Z,98787.56
2022-09-04T14:46:55.732Z,98791.81
2022-09-04T14:49:23.552Z,98781.63
2022-09-04T14:51:52.453Z,98788.88
2022-09-04T14:54:28.382Z,98784.34
2022-09-04T14:56:57.236Z,98784.06
2022-09-04T14:59:35.839Z,98780.59
2022-09-04T15:02:12.211Z,98781.06
2022-09-04T15:04:52.896Z,98787.13
2022-09-04T15:07:42.490Z,98782.81
2022-09-04T15:10:12.034Z,98785.22
2022-09-04T15:12:41.364Z,98779.94
2022-09-04T15:15:16.636Z,98787.16
2022-09-04T15:17:51.392Z,98779.13
2022-09-04T15:20:22.663Z,98785.81
2022-09-04T15:23:01.265Z,98783.13
2022-09-04T15:25:58.622Z,98790.28
2022-09-04T15:28:38.425Z,98791.13
2022-09-04T15:31:16.841Z,98787.91
2022-09-04T15:33:44.400Z,98783.94
2022-09-04T15:36:15.853Z,98789.25
2022-09-04T15:38:47.328Z,98795.84
2022-09-04T15:41:26.848Z,98786.47
2022-09-04T15:43:58.318Z,98790.03
2022-09-04T15:46:41.672Z,98795.63
2022-09-04T15:49:38.748Z,98790.59
2022-09-04T15:52:45.348Z,98792.44
2022-09-04T15:55:36.299Z,98795.09
2022-09-04T15:58:29.675Z,98801.81
2022-09-04T16:01:06.230Z,98792.97
2022-09-04T16:03:52.028Z,98792.47
2022-09-04T16:06:30.206Z,98788.72
2022-09-04T16:09:10.958Z,98786.06
2022-09-04T16:11:41.986Z,98787.72
2022-09-04T16:14:18.143Z,98789.81
2022-09-04T16:16:58.139Z,98789.81
2022-09-04T16:19:43.529Z,98792.47
2022-09-04T16:22:42.192Z,98792.50
2022-09-04T16:25:23.496Z,98797.56
2022-09-04T16:28:15.699Z,98797.31
2022-09-04T16:30:47.374Z,98800.28
2022-09-04T16:33:33.961Z,98792.25
2022-09-04T16:36:17.118Z,98788.50
2022-09-04T16:38:52.321Z,98797.84
2022-09-04T16:41:56.825Z,98805.84
2022-09-04T16:44:44.284Z,98807.72
2022-09-04T16:47:41.271Z,98799.47
2022-09-04T16:50:24.941Z,98802.09
2022-09-04T16:53:12.828Z,98797.03
2022-09-04T16:55:44.740Z,98801.53
2022-09-04T16:58:11.207Z,98802.84
2022-09-04T17:01:09.069Z,98809.53
2022-09-04T17:04:12.589Z,98811.91
2022-09-04T17:06:42.842Z,98812.66
2022-09-04T17:09:24.705Z,98812.91
2022-09-04T17:11:55.804Z,98811.25
2022-09-04T17:14:32.159Z,98820.59
2022-09-04T17:17:30.654Z,98816.31
2022-09-04T17:20:06.744Z,98812.78
2022-09-04T17:28:56.216Z,98813.06
2022-09-04T17:29:16.890Z,98809.88
2022-09-04T17:29:19.621Z,98814.09
2022-09-04T17:31:29.612Z,98813.34
2022-09-04T17:40:41.824Z,98815.44
2022-09-04T17:40:56.626Z,98810.06
2022-09-04T17:42:27.046Z,98821.03
2022-09-04T17:45:06.610Z,98819.44
2022-09-04T17:47:43.218Z,98828.47
2022-09-04T17:50:14.156Z,98830.06
2022-09-04T17:53:02.877Z,98829.78
2022-09-04T17:55:31.463Z,98834.88
2022-09-04T17:58:09.249Z,98831.38
2022-09-04T18:00:54.225Z,98833.22
2022-09-04T18:04:19.691Z,98835.63
2022-09-04T18:06:40.985Z,98842.03
2022-09-04T18:09:32.622Z,98837.00
2022-09-04T18:12:37.814Z,98839.63
2022-09-04T18:15:33.203Z,98842.53
2022-09-04T18:18:00.906Z,98842.53
2022-09-04T18:20:37.870Z,98849.50
2022-09-04T18:23:46.386Z,98858.28
2022-09-04T18:26:23.416Z,98852.03
2022-09-04T18:29:32.500Z,98860.00
2022-09-04T18:37:10.756Z,98858.53
2022-09-04T18:37:16.157Z,98863.72
2022-09-04T18:37:55.546Z,98862.97
2022-09-04T18:40:43.704Z,98856.88
2022-09-04T18:50:20.300Z,98861.75
2022-09-04T18:50:39.228Z,98867.88
2022-09-04T18:50:46.232Z,98869.50
2022-09-04T18:51:51.724Z,98875.09
2022-09-04T18:54:24.773Z,98876.69
2022-09-04T18:57:01.214Z,98872.44
2022-09-04T18:59:36.555Z,98875.09
2022-09-04T19:02:21.229Z,98880.44
2022-09-04T19:05:00.397Z,98881.22
2022-09-04T19:07:35.625Z,98882.03
2022-09-04T19:10:25.175Z,98878.81
2022-09-04T19:12:52.166Z,98889.25
2022-09-04T19:15:36.590Z,98884.97
2022-09-04T19:18:20.363Z,98878.00
2022-09-04T19:21:14.677Z,98877.47
2022-09-04T19:23:41.420Z,98879.88
2022-09-04T19:26:41.446Z,98883.59
2022-09-04T19:29:20.333Z,98883.88
2022-09-04T19:31:57.326Z,98879.06
2022-09-04T19:34:37.346Z,98884.94
2022-09-04T19:38:58.917Z,98889.69
2022-09-04T19:46:04.421Z,98895.25
2022-09-04T19:46:05.352Z,98888.59
2022-09-04T19:46:27.701Z,98896.31
2022-09-04T19:49:59.761Z,98896.84
2022-09-04T19:53:29.944Z,98893.38
2022-09-04T19:55:24.968Z,98891.22
2022-09-04T19:57:47.654Z,98888.00
2022-09-04T20:00:35.654Z,98894.94
2022-09-04T20:03:30.229Z,98890.91
2022-09-04T20:06:21.532Z,98901.03
2022-09-04T20:09:02.567Z,98903.13
2022-09-04T20:11:39.456Z,98909.50
2022-09-04T20:14:13.961Z,98908.97
2022-09-04T20:16:57.240Z,98902.56
2022-09-04T20:19:37.347Z,98908.72
2022-09-04T20:22:06.816Z,98902.56
2022-09-04T20:25:01.932Z,98901.50
2022-09-04T20:28:16.910Z,98903.94
2022-09-04T20:30:45.376Z,98915.41
2022-09-04T20:33:19.369Z,98902.56
2022-09-04T20:35:58.743Z,98904.16
2022-09-04T20:38:40.979Z,98916.47
2022-09-04T20:41:10.730Z,98907.91
2022-09-04T20:44:14.724Z,98908.72
2022-09-04T20:49:00.903Z,98912.16
2022-09-04T20:52:54.576Z,98909.78
2022-09-04T20:53:07.717Z,98915.91
2022-09-04T20:55:59.568Z,98910.84
2022-09-04T21:03:07.524Z,98921.25
2022-09-04T21:03:20.359Z,98919.63
2022-09-04T21:04:42.873Z,98924.16
2022-09-04T21:07:31.133Z,98923.84
2022-09-04T21:10:27.618Z,98922.25
2022-09-04T21:13:16.515Z,98928.88
2022-09-04T21:16:07.154Z,98926.47
2022-09-04T21:18:41.663Z,98929.94
2022-09-04T21:21:30.004Z,98924.06
2022-09-04T21:24:22.132Z,98927.53
2022-09-04T21:27:12.536Z,98924.31
2022-09-04T21:29:48.442Z,98932.06
2022-09-04T21:32:30.452Z,98933.94
2022-09-04T21:35:18.047Z,98937.09
2022-09-04T21:38:15.207Z,98934.44
2022-09-04T21:40:52.689Z,98936.03
2022-09-04T21:43:47.196Z,98934.75
2022-09-04T21:46:31.391Z,98940.31
2022-09-04T21:49:26.387Z,98945.09
2022-09-04T21:52:03.728Z,98945.09
2022-09-04T21:57:45.733Z,98953.09
2022-09-04T22:02:28.426Z,98953.91
2022-09-04T22:02:43.084Z,98950.44
2022-09-04T22:03:31.807Z,98949.84
2022-09-04T22:07:53.572Z,98949.31
2022-09-04T22:13:33.245Z,98953.84
2022-09-04T22:13:42.497Z,98953.03
2022-09-04T22:16:16.436Z,98956.50
2022-09-04T22:19:22.819Z,98948.47
2022-09-04T22:22:14.953Z,98953.00
2022-09-04T22:25:04.263Z,98949.25
2022-09-04T22:28:07.315Z,98954.59
2022-09-04T22:30:53.934Z,98954.03
2022-09-04T22:34:15.110Z,98950.56
2022-09-04T22:37:17.176Z,98950.56
2022-09-04T22:39:50.481Z,98947.88
2022-09-04T22:42:33.504Z,98943.88
2022-09-04T22:45:11.633Z,98952.72
2022-09-04T22:47:55.701Z,98953.00
2022-09-04T22:50:22.026Z,98948.94
2022-09-04T22:53:26.911Z,98943.63
2022-09-04T22:56:23.117Z,98953.00
2022-09-04T22:58:51.649Z,98952.69
2022-09-04T23:01:30.202Z,98950.50
2022-09-04T23:04:38.015Z,98953.41
2022-09-04T23:12:06.429Z,98949.16
2022-09-04T23:13:48.739Z,98955.03
2022-09-04T23:14:11.059Z,98952.88
2022-09-04T23:16:53.439Z,98956.09
2022-09-04T23:24:15.189Z,98954.47
2022-09-04T23:26:44.303Z,98949.69
2022-09-04T23:26:44.826Z,98955.28
2022-09-04T23:28:32.862Z,98955.28
2022-09-04T23:31:37.552Z,98955.78
2022-09-04T23:34:26.033Z,98956.84
2022-09-04T23:37:02.249Z,98961.09
2022-09-04T23:39:51.385Z,98954.16
2022-09-04T23:42:58.475Z,98960.28
2022-09-04T23:45:53.897Z,98954.44
2022-09-04T23:48:31.667Z,98957.88
2022-09-04T23:51:19.985Z,98955.22
2022-09-04T23:54:10.403Z,98952.78
2022-09-04T23:56:52.572Z,98950.38
2022-09-04T23:59:37.328Z,98951.19
